Archival Weather

Chicago O'Hare International

Chicago, Illinois (KORD)

Report from: Saturday, March 31, 2012 8:51 PM CDT
Current time: Saturday, July 13, 2024 8:16 PM CDT

Current weather – Weather history – Daily summaries
Weather forecast

Temperature7.2°C (45.0°F)
Wind chill5.1°C (41.2°F)
Dew point2.8°C (37.0°F)
Winds 6 kts (3.1 m/s, 6.9 mph) East (90°)
Visibility9 mi. (14.5 km)
Clouds Few clouds 8,000 ft. (2,438 m)
Scattered clouds 16,000 ft. (4,877 m)
Ceiling: Broken clouds 23,000 ft. (7,010 m)
Altimeter29.88 in.Hg (1012 mB)
Relative humidity74 %
Density altitude-788 ft. (-240 m)
Sea-level pressure101.2 kPa (1012 mB, 29.89 in.Hg)
Remarks System requires maintenance
Automated weather observing station with precipitation discriminator
Flight conditions Visual Meteorological Conditions
Raw data2012-04-01 01:51 KORD 010151Z 09006KT 9SM FEW080 SCT160 BKN230 07/03 A2988 RMK AO2 SLP121 T00720028 $
An error has occurred. This application may no longer respond until reloaded. Reload 🗙